General Aviation Weather

Text Reports

Enter one or more of the following location identifiers separated by a space:

Zip Code, Four-Character ICAO or Three-Character IATA airport codes.

METAR - Aviation Routine Weather Report
TTPP - Piarco,
Updated at 9:00 PM GMT on February 12, 2016 (5:00 PM AST):
METAR TTPP 122100Z 11016KT 9999 FEW022 28/22 Q1014 NOSIG
TAF - Terminal Area Forecast
TTPP - Piarco,
Updated at 9:00 PM GMT on February 12, 2016 (5:00 PM AST):
TAF TTPP 121600Z 1218/1318 10015KT 9999 SCT020
     BECMG 1223/1301 09005KT
     BECMG 1313/1315 10015KT=
Decoded:
ID: TTPP   Port of Spain, TD
REPORT TIME: 12 16: 0
VALID TIME: 12 February AT 18:00Z to 13 February AT 18:00Z.
INITIAL WX
   WINDS: 100 AT 15
   CLOUDS: 20 SCT
WX BECOMING FROM 23Z TO 01Z
   WINDS: 90 AT 5
WX BECOMING FROM 13Z TO 15Z
   WINDS: 100 AT 15
   COMMENTS: = 

CORRECTION
INITIAL WX
   WEATHER: PAIL
   COMMENTS: 121636Z 1212/1312 10006KT P6SM VCSH BKN045 
NEW WX STARTING: 18:00Z
   WINDS: 40 AT 4
   VISIBILITY: >6.0 MILES
   CLOUDS: 20 SCT
   CLOUDS: 35 BKN
NEW WX STARTING: 23:00Z
   WINDS: 40 AT 4
   VISIBILITY: >6.0 MILES
   WEATHER: VCSH
   CLOUDS: 15 SCT
   CLOUDS: 30 BKN
   COMMENTS: = 

CORRECTION
INITIAL WX
   WEATHER: PAIL
   COMMENTS: 121636Z 1212/1312 10006KT P6SM VCSH BKN045 
NEW WX STARTING: 18:00Z
   WINDS: 40 AT 4
   VISIBILITY: >6.0 MILES
   CLOUDS: 20 SCT
   CLOUDS: 35 BKN
NEW WX STARTING: 23:00Z
   WINDS: 40 AT 4
   VISIBILITY: >6.0 MILES
   WEATHER: VCSH
   CLOUDS: 15 SCT
   CLOUDS: 30 BKN
   COMMENTS: = 

PIREP - Pilot Weather Report
TTPP - Piarco,
Updated at 9:00 PM GMT on February 12, 2016 (5:00 PM AST):
No PIREP is currently available for this location.
AIRMET - Airmens Meteorological Information
TTPP - Piarco,
Updated at 9:00 PM GMT on February 12, 2016 (5:00 PM AST):
No AIRMET is currently available for this location.
SIGMET - Significant Meteorological Information
TTPP - Piarco,
Updated at 9:00 PM GMT on February 12, 2016 (5:00 PM AST):
No SIGMET is currently available for this location.
NOTAM - Notice to Airmen
TTPP - Piarco,
Updated at 9:00 PM GMT on February 12, 2016 (5:00 PM AST):
No NOTAM is currently available for this location.
Forecast Area
TTPP - Piarco,
Updated at 9:00 PM GMT on February 12, 2016 (5:00 PM AST):
No NOTAM is currently available for this location.
Aviation Weather Maps